Time;durP1;ratioP1;P1;durP2;ratioP2;P2;SDS_P1;SDS_P2;PMS_P1;PMS_P2;Temp;Humidity;BMP_temperature;BMP_pressure;BME280_temperature;BME280_humidity;BME280_pressure;Samples;Min_cycle;Max_cycle;Signal;HPM_P1;HPM_P2
2022/08/15 20:12:53;;;;;;;11.90;8.23;;;;;;;;;;5167382;27;20669;-85
2022/08/15 20:15:47;;;;;;;12.55;8.60;;;;;;;;;;5119581;27;20717;-86
2022/08/15 20:18:23;;;;;;;14.07;8.53;;;;;;;;;;5159134;27;20037;-87
2022/08/15 20:21:12;;;;;;;10.65;8.18;;;;;;;;;;5154035;27;20019;-87
2022/08/15 20:24:00;;;;;;;11.27;8.57;;;;;;;;;;5159476;27;20055;-86
2022/08/15 20:26:50;;;;;;;11.95;7.82;;;;;;;;;;5159555;27;20027;-88
2022/08/15 20:29:25;;;;;;;13.18;8.95;;;;;;;;;;5131840;27;20035;-84
2022/08/15 20:31:57;;;;;;;;;;;;;;;;;;5141616;27;20023;-88
2022/08/15 20:34:23;;;;;;;12.52;8.82;;;;;;;;;;5137251;27;19907;-89
2022/08/15 20:36:48;;;;;;;10.55;8.63;;;;;;;;;;5155601;27;20050;-86
2022/08/15 20:39:19;;;;;;;14.57;8.98;;;;;;;;;;5156806;27;20019;-88
2022/08/15 20:41:50;;;;;;;13.70;8.50;;;;;;;;;;5159053;27;20050;-88
2022/08/15 20:44:38;;;;;;;15.45;8.82;;;;;;;;;;5159508;27;20026;-86
2022/08/15 20:47:11;;;;;;;15.82;9.35;;;;;;;;;;5166622;27;20044;-83
2022/08/15 20:49:37;;;;;;;14.50;9.35;;;;;;;;;;5171266;27;20031;-88
2022/08/15 20:52:10;;;;;;;17.55;11.73;;;;;;;;;;5167847;27;20030;-86
2022/08/15 20:54:40;;;;;;;13.82;9.65;;;;;;;;;;5142315;27;20031;-90
2022/08/15 20:57:09;;;;;;;14.73;9.50;;;;;;;;;;5155590;27;20082;-85
2022/08/15 20:59:49;;;;;;;18.02;9.30;;;;;;;;;;5155061;27;20022;-87
2022/08/15 21:02:32;;;;;;;12.52;9.65;;;;;;;;;;5154125;27;20027;-81
2022/08/15 21:05:18;;;;;;;12.95;9.27;;;;;;;;;;5157804;27;20042;-82
2022/08/15 21:07:54;;;;;;;11.07;8.88;;;;;;;;;;5155842;27;20090;-81
2022/08/15 21:10:46;;;;;;;14.60;9.70;;;;;;;;;;5157449;27;20335;-82
2022/08/15 21:13:21;;;;;;;14.57;9.48;;;;;;;;;;5136439;27;20038;-84
2022/08/15 21:16:05;;;;;;;13.15;9.15;;;;;;;;;;5151746;27;20416;-83
2022/08/15 21:18:56;;;;;;;12.30;9.25;;;;;;;;;;5137777;27;20030;-83
2022/08/15 21:21:24;;;;;;;11.40;8.65;;;;;;;;;;5141566;27;20027;-83
2022/08/15 21:24:22;;;;;;;11.30;9.02;;;;;;;;;;5142788;27;20080;-85
2022/08/15 21:26:51;;;;;;;12.40;8.85;;;;;;;;;;5136376;27;20092;-83
2022/08/15 21:29:16;;;;;;;10.73;8.70;;;;;;;;;;5142952;27;20095;-82
2022/08/15 21:32:10;;;;;;;12.10;8.95;;;;;;;;;;5144117;27;20023;-81
2022/08/15 21:34:59;;;;;;;10.65;8.60;;;;;;;;;;5119258;27;20086;-83
2022/08/15 21:37:51;;;;;;;13.48;8.70;;;;;;;;;;5140669;27;20027;-84
2022/08/15 21:40:46;;;;;;;11.15;8.63;;;;;;;;;;5131555;27;20039;-82
2022/08/15 21:44:00;;;;;;;11.40;8.70;;;;;;;;;;5113947;27;20050;-82
2022/08/15 21:46:49;;;;;;;11.45;8.50;;;;;;;;;;5139126;27;20355;-81
2022/08/15 21:49:33;;;;;;;10.40;8.75;;;;;;;;;;5125075;27;20026;-81
2022/08/15 21:52:05;;;;;;;12.85;9.25;;;;;;;;;;5137790;27;20051;-81
2022/08/15 21:54:55;;;;;;;11.90;9.30;;;;;;;;;;5143596;27;20023;-82
2022/08/15 21:57:34;;;;;;;11.48;9.30;;;;;;;;;;5143482;27;20083;-80
2022/08/15 22:00:13;;;;;;;14.05;8.93;;;;;;;;;;5143622;27;20363;-82
2022/08/15 22:03:16;;;;;;;15.02;9.10;;;;;;;;;;5121671;27;20019;-82
2022/08/15 22:05:45;;;;;;;13.88;9.75;;;;;;;;;;5142257;27;20054;-82
2022/08/15 22:08:31;;;;;;;11.98;9.32;;;;;;;;;;5133084;27;20175;-81
2022/08/15 22:11:03;;;;;;;11.25;8.80;;;;;;;;;;5139006;27;20043;-83
2022/08/15 22:13:29;;;;;;;12.30;9.98;;;;;;;;;;5141358;27;20333;-83
2022/08/15 22:15:55;;;;;;;11.82;9.77;;;;;;;;;;5143250;27;20023;-82
2022/08/15 22:18:21;;;;;;;12.05;9.63;;;;;;;;;;5143140;27;20203;-83
2022/08/15 22:20:47;;;;;;;14.85;10.43;;;;;;;;;;5143102;27;20042;-81
2022/08/15 22:23:14;;;;;;;13.00;10.05;;;;;;;;;;5119022;27;20018;-82
2022/08/15 22:25:43;;;;;;;13.63;10.38;;;;;;;;;;5137525;27;20019;-83
2022/08/15 22:28:12;;;;;;;11.95;9.90;;;;;;;;;;5137731;27;20027;-83
2022/08/15 22:30:38;;;;;;;15.23;10.20;;;;;;;;;;5138687;27;20023;-82
2022/08/15 22:33:06;;;;;;;12.70;10.02;;;;;;;;;;5139791;27;20423;-84
2022/08/15 22:35:32;;;;;;;15.15;10.13;;;;;;;;;;5139673;27;20069;-87
2022/08/15 22:37:58;;;;;;;11.60;9.75;;;;;;;;;;5143681;27;20027;-93
2022/08/15 22:40:25;;;;;;;16.00;9.77;;;;;;;;;;5120955;27;20094;-77
2022/08/15 22:43:00;;;;;;;14.25;9.55;;;;;;;;;;5119743;27;20046;-78
2022/08/15 22:45:33;;;;;;;12.50;9.60;;;;;;;;;;5115188;27;20019;-77
2022/08/15 22:47:59;;;;;;;13.15;9.65;;;;;;;;;;5123946;27;20154;-82
2022/08/15 22:50:27;;;;;;;13.32;9.40;;;;;;;;;;5123230;27;20319;-81
2022/08/15 22:52:56;;;;;;;13.90;9.90;;;;;;;;;;5130037;27;20038;-79
2022/08/15 22:55:34;;;;;;;14.00;10.13;;;;;;;;;;5125532;27;20072;-83
2022/08/15 22:58:01;;;;;;;13.23;10.13;;;;;;;;;;5127716;27;20020;-79
2022/08/15 23:00:38;;;;;;;12.75;9.90;;;;;;;;;;5128004;27;20031;-79
2022/08/15 23:03:05;;;;;;;15.98;10.40;;;;;;;;;;5129928;27;20073;-79
2022/08/15 23:05:36;;;;;;;13.65;10.05;;;;;;;;;;5128650;27;20030;-79
2022/08/15 23:08:11;;;;;;;14.45;11.60;;;;;;;;;;5129220;27;20023;-79
2022/08/15 23:11:05;;;;;;;12.45;10.20;;;;;;;;;;5139317;27;20337;-79
2022/08/15 23:13:38;;;;;;;12.45;10.38;;;;;;;;;;5138707;27;20090;-80
2022/08/15 23:16:10;;;;;;;14.13;10.40;;;;;;;;;;5142189;27;20046;-80
2022/08/15 23:18:48;;;;;;;15.32;10.60;;;;;;;;;;5142503;27;20019;-91
2022/08/15 23:21:14;;;;;;;15.70;11.00;;;;;;;;;;5130465;27;20031;-89
2022/08/15 23:24:05;;;;;;;14.80;11.00;;;;;;;;;;5144816;27;20037;-82
2022/08/15 23:26:32;;;;;;;15.25;10.98;;;;;;;;;;5135083;27;20031;-91
2022/08/15 23:29:10;;;;;;;15.18;10.88;;;;;;;;;;5137367;27;20041;-94
2022/08/15 23:31:40;;;;;;;13.90;10.82;;;;;;;;;;5136874;27;20047;-94
2022/08/15 23:34:08;;;;;;;13.15;10.60;;;;;;;;;;5134228;27;20027;-93
2022/08/15 23:36:37;;;;;;;13.25;10.52;;;;;;;;;;5127837;27;20253;-90
2022/08/15 23:39:06;;;;;;;14.38;11.50;;;;;;;;;;5131740;27;20375;-95
2022/08/15 23:41:59;;;;;;;15.18;11.18;;;;;;;;;;5115930;28;20107;-95
2022/08/15 23:44:25;;;;;;;13.32;10.35;;;;;;;;;;5094781;27;20029;-95
2022/08/15 23:46:51;;;;;;;12.63;10.48;;;;;;;;;;5135101;27;20015;-93
2022/08/15 23:49:17;;;;;;;13.93;10.80;;;;;;;;;;5130211;27;20068;-92
2022/08/15 23:51:44;;;;;;;15.35;11.00;;;;;;;;;;5126888;28;20033;-93
2022/08/15 23:54:12;;;;;;;14.90;11.40;;;;;;;;;;5130890;27;20091;-93
2022/08/15 23:56:37;;;;;;;17.15;10.93;;;;;;;;;;5130613;27;20082;-93
2022/08/15 23:59:02;;;;;;;13.80;11.07;;;;;;;;;;5128054;27;20035;-93
